Relevés horaires Matro (Suisse)


Relevés horaires à Matro - Jeudi 12 Juin 2014
Heure UTC1 Température [°C] Vent [km/h] Hum. [%] Pres.4 [hPa] Visi. [Km] Nébu. [octa] Préc.5 [mm] Cond.
2m. Res. Ros. Dir.2 Vit. Moy. Raf.3
23:00 11.1 9.1 3.0 NNO 16.7 27.8 33.3 57 850(-0.6/3h) -- -- -- --
22:00 10.6 7.4 4.4 NNO 29.6 35.2 42.6 65 850(-0.2/3h) -- -- -- --
21:00 10.9 7.4 4.9 NNO 35.2 53.7 64.8 66 850(0.8/3h) -- -- -- --
20:00 11.6 8.8 4.9 NNO 27.8 35.2 46.3 63 850(1.3/3h) -- -- -- --
19:00 12.5 9.5 4.7 NNO 37.0 53.7 64.8 59 850(0.0/3h) -- -- -- --
18:00 12.6 9.8 5.7 NNO 33.3 33.3 46.3 63 850(-0.8/3h) -- -- -- --
17:00 15.8 15.8 10.6 SSE 7.4 13.0 24.1 71 850(-1.1/3h) -- -- -- --
16:00 15.6 15.4 9.0 ESE 9.3 9.3 18.5 65 850(-0.9/3h) -- -- -- --
15:00 15.4 15.4 6.0 N 3.7 14.8 27.8 53 850(-1.0/3h) -- -- -- --
14:00 16.4 16 4.9 NNO 13.0 14.8 25.9 46 850(-0.8/3h) -- -- -- --
13:00 18.4 18.4 7.6 SSE 11.1 9.3 22.2 49 850(-0.7/3h) -- -- -- --
12:00 18.4 18.4 6.8 S 7.4 7.4 24.1 47 850(-0.2/3h) -- -- -- --
11:00 16.6 16.6 5.8 SSE 5.6 5.6 16.7 49 850(0.1/3h) -- -- -- --
10:00 16.9 16.9 6.5 ESE 7.4 5.6 20.4 50 850(0.1/3h) -- -- -- --
09:00 14.5 14.5 6.3 SE 5.6 5.6 18.5 58 850(0.1/3h) -- -- -- --
08:00 14.3 14.3 7.1 SE 5.6 3.7 14.8 62 850(0.1/3h) -- -- -- --
07:00 15.3 15.3 5.9 ESE 3.7 3.7 18.5 53 850(0.2/3h) -- -- -- --
06:00 13.3 13.3 3.0 NE 3.7 14.8 16.7 50 850(0.1/3h) -- -- -- --
05:00 13.3 12.4 5.3 SE 11.1 14.8 16.7 58 850(-0.2/3h) -- -- -- --
04:00 13.2 12.1 2.3 SSE 13.0 13.0 16.7 48 850(-0.4/3h) -- -- -- --
03:00 13.5 13.2 2.1 SE 7.4 7.4 9.3 46 850(-0.7/3h) -- -- -- --
02:00 13.7 13.7 1.8 NO 5.6 7.4 9.3 44 850(-0.9/3h) -- -- -- --
01:00 13.1 13.1 0.8 NO 3.7 3.7 5.6 43 850(-0.7/3h) -- -- -- --
00:00 13.2 13.2 1.3 NO 3.7 44.4 59.3 44 850(-0.3/3h) -- -- -- --

1 Coordinated Universal Time. Actuellement il est 12:00 locale et 10:00 UTC.

2 Le vent souffle depuis la direction indiquée vers la direction oposée.

3 Les rafales max. sont disponible 40 min après l'heure du relevé.

4 Pour les stations d'altitude (plus de 600m) le géopotentiel du niveau le plus proche de la pression obligatoire est indiqué.

5 Les stations disposant d'un diffuseur peuvent indiquer "trace". Cela signifie que des précipitations ont touchés le sol mais que la quantité est inférieure à 0.1 mm.

Copyright

Les données affichées sur cette page sont la propriété exclusive de Météo Suisse.

Récapitulatif de la journée
Température [°C] Vent [km/h] Ensoleillement4 [h] Precipitations totale5 [mm] Pression [Hpa]
Min1 Max.2 Moy.3 Max. Min Max.
12.7 18.5 18.2 64.8 10 h 0 min 0 850.0 850.0

1 Température minimale relevée entre 18:00 UTC la veille et 18:00 UTC le jour donné.

2 Température maximale relevée entre 06:00 UTC le jour donné et 06:00 UTC le lendemain.

3 Vent moyen de la journée basé sur les relevés horaires.

4 Ensoleillement en heures relevé entre 06:00 UTC la veille et 06:00 UTC le jour donné.

5 Précipitations totales tombées entre 06:00 UTC la jour donné et 06:00 UTC le lendemain.

Graphiques horaires